createdAt,value
2022-11-27T00:00:28.608Z,1005.83
2022-11-27T00:01:28.601Z,1005.84
2022-11-27T00:02:28.777Z,1005.84
2022-11-27T00:03:28.782Z,1005.89
2022-11-27T00:04:28.607Z,1005.82
2022-11-27T00:05:28.570Z,1005.86
2022-11-27T00:06:28.562Z,1005.87
2022-11-27T00:07:28.632Z,1005.86
2022-11-27T00:08:28.552Z,1005.84
2022-11-27T00:09:28.563Z,1005.82
2022-11-27T00:10:28.530Z,1005.80
2022-11-27T00:11:28.538Z,1005.77
2022-11-27T00:12:28.516Z,1005.73
2022-11-27T00:13:28.507Z,1005.77
2022-11-27T00:14:28.526Z,1005.71
2022-11-27T00:15:28.493Z,1005.72
2022-11-27T00:16:28.607Z,1005.70
2022-11-27T00:17:28.475Z,1005.73
2022-11-27T00:18:28.466Z,1005.69
2022-11-27T00:19:28.458Z,1005.61
2022-11-27T00:20:29.781Z,1005.61
2022-11-27T00:21:29.444Z,1005.66
2022-11-27T00:22:28.443Z,1005.62
2022-11-27T00:23:28.430Z,1005.60
2022-11-27T00:24:28.425Z,1005.60
2022-11-27T00:25:28.437Z,1005.65
2022-11-27T00:26:31.896Z,1005.59
2022-11-27T00:27:29.395Z,1005.56
2022-11-27T00:28:28.384Z,1005.52
2022-11-27T00:29:28.381Z,1005.49
2022-11-27T00:30:28.397Z,1005.48
2022-11-27T00:31:28.470Z,1005.46
2022-11-27T00:32:28.355Z,1005.52
2022-11-27T00:33:28.348Z,1005.41
2022-11-27T00:34:28.341Z,1005.42
2022-11-27T00:35:28.354Z,1005.44
2022-11-27T00:36:28.324Z,1005.43
2022-11-27T00:37:28.319Z,1005.43
2022-11-27T00:38:28.302Z,1005.47
2022-11-27T00:39:28.301Z,1005.40
2022-11-27T00:40:28.315Z,1005.34
2022-11-27T00:41:28.285Z,1005.44
2022-11-27T00:42:28.273Z,1005.37
2022-11-27T00:43:28.268Z,1005.37
2022-11-27T00:44:28.259Z,1005.40
2022-11-27T00:45:28.276Z,1005.35
2022-11-27T00:46:29.207Z,1005.34
2022-11-27T00:47:29.236Z,1005.39
2022-11-27T00:48:28.228Z,1005.38
2022-11-27T00:49:28.219Z,1005.30
2022-11-27T00:50:28.242Z,1005.37
2022-11-27T00:51:28.206Z,1005.40
2022-11-27T00:52:28.191Z,1005.29
2022-11-27T00:53:28.192Z,1005.35
2022-11-27T00:54:28.181Z,1005.37
2022-11-27T00:55:28.199Z,1005.36
2022-11-27T00:56:28.167Z,1005.28
2022-11-27T00:57:28.157Z,1005.36
2022-11-27T00:58:28.149Z,1005.31
2022-11-27T00:59:28.141Z,1005.31
2022-11-27T01:00:28.161Z,1005.27
2022-11-27T01:01:28.194Z,1005.25
2022-11-27T01:02:28.148Z,1005.26
2022-11-27T01:03:29.110Z,1005.31
2022-11-27T01:04:28.108Z,1005.35
2022-11-27T01:05:28.124Z,1005.31
2022-11-27T01:06:28.088Z,1005.28
2022-11-27T01:07:28.127Z,1005.27
2022-11-27T01:08:28.070Z,1005.30
2022-11-27T01:09:28.061Z,1005.30
2022-11-27T01:10:28.056Z,1005.27
2022-11-27T01:11:28.049Z,1005.28
2022-11-27T01:12:29.109Z,1005.24
2022-11-27T01:13:28.032Z,1005.20
2022-11-27T01:14:28.024Z,1005.19
2022-11-27T01:15:28.016Z,1005.06
2022-11-27T01:16:28.061Z,1005.14
2022-11-27T01:17:28.025Z,1005.13
2022-11-27T01:18:27.991Z,1005.15
2022-11-27T01:19:28.062Z,1005.20
2022-11-27T01:20:27.977Z,1005.12
2022-11-27T01:21:27.970Z,1005.09
2022-11-27T01:22:27.989Z,1005.11
2022-11-27T01:23:27.954Z,1005.11
2022-11-27T01:24:27.949Z,1005.09
2022-11-27T01:25:27.942Z,1005.04
2022-11-27T01:26:27.946Z,1005.04
2022-11-27T01:27:27.945Z,1005.08
2022-11-27T01:28:27.922Z,1005.05
2022-11-27T01:29:27.908Z,1005.01
2022-11-27T01:30:27.916Z,1005.02
2022-11-27T01:31:27.980Z,1005.00
2022-11-27T01:32:27.911Z,1004.98
2022-11-27T01:33:27.877Z,1005.05
2022-11-27T01:34:27.871Z,1004.96
2022-11-27T01:35:27.866Z,1004.95
2022-11-27T01:36:27.856Z,1004.92
2022-11-27T01:37:27.869Z,1004.92
2022-11-27T01:38:27.843Z,1004.85
2022-11-27T01:39:27.832Z,1004.91
2022-11-27T01:40:27.823Z,1004.90
2022-11-27T01:41:27.819Z,1004.85
2022-11-27T01:42:27.837Z,1004.90
2022-11-27T01:43:27.803Z,1004.91
2022-11-27T01:44:27.794Z,1004.88
2022-11-27T01:45:27.783Z,1004.88
2022-11-27T01:46:27.807Z,1004.88
2022-11-27T01:47:27.794Z,1004.90
2022-11-27T01:48:27.761Z,1004.86
2022-11-27T01:49:27.755Z,1004.85
2022-11-27T01:50:27.742Z,1004.91
2022-11-27T01:51:27.737Z,1004.85
2022-11-27T01:52:27.750Z,1004.86
2022-11-27T01:53:27.717Z,1004.86
2022-11-27T01:54:27.710Z,1004.83
2022-11-27T01:55:27.706Z,1004.82
2022-11-27T01:56:27.693Z,1004.83
2022-11-27T01:57:27.713Z,1004.86
2022-11-27T01:58:27.688Z,1004.89
2022-11-27T01:59:27.672Z,1004.84
2022-11-27T02:00:27.664Z,1004.80
2022-11-27T02:01:27.690Z,1004.84
2022-11-27T02:02:27.703Z,1004.81
2022-11-27T02:03:27.691Z,1004.89
2022-11-27T02:04:27.633Z,1004.80
2022-11-27T02:05:27.622Z,1004.82
2022-11-27T02:06:27.617Z,1004.82
2022-11-27T02:07:27.693Z,1004.79
2022-11-27T02:08:27.629Z,1004.80
2022-11-27T02:09:27.605Z,1004.80
2022-11-27T02:10:27.587Z,1004.77
2022-11-27T02:11:27.591Z,1004.83
2022-11-27T02:12:27.576Z,1004.86
2022-11-27T02:13:27.593Z,1004.80
2022-11-27T02:14:27.562Z,1004.89
2022-11-27T02:15:27.552Z,1004.83
2022-11-27T02:16:27.609Z,1004.84
2022-11-27T02:17:27.536Z,1004.80
2022-11-27T02:18:27.550Z,1004.81
2022-11-27T02:19:27.521Z,1004.78
2022-11-27T02:20:27.510Z,1004.83
2022-11-27T02:21:27.510Z,1004.76
2022-11-27T02:22:27.496Z,1004.78
2022-11-27T02:23:27.514Z,1004.75
2022-11-27T02:24:27.481Z,1004.75
2022-11-27T02:25:28.577Z,1004.77
2022-11-27T02:26:28.472Z,1004.71
2022-11-27T02:27:27.458Z,1004.71
2022-11-27T02:28:27.475Z,1004.68
2022-11-27T02:29:27.444Z,1004.71
2022-11-27T02:30:27.428Z,1004.69
2022-11-27T02:31:27.465Z,1004.70
2022-11-27T02:32:27.419Z,1004.67
2022-11-27T02:33:27.439Z,1004.62
2022-11-27T02:34:27.400Z,1004.66
2022-11-27T02:35:27.395Z,1004.61
2022-11-27T02:36:27.387Z,1004.58
2022-11-27T02:37:27.379Z,1004.58
2022-11-27T02:38:27.397Z,1004.51
2022-11-27T02:39:27.363Z,1004.58
2022-11-27T02:40:27.352Z,1004.53
2022-11-27T02:41:27.345Z,1004.57
2022-11-27T02:42:27.408Z,1004.56
2022-11-27T02:43:27.366Z,1004.55
2022-11-27T02:44:27.323Z,1004.56
2022-11-27T02:45:27.312Z,1004.56
2022-11-27T02:46:28.402Z,1004.49
2022-11-27T02:47:27.299Z,1004.53
2022-11-27T02:48:27.290Z,1004.59
2022-11-27T02:49:27.304Z,1004.60
2022-11-27T02:50:27.279Z,1004.58
2022-11-27T02:51:27.264Z,1004.54
2022-11-27T02:52:27.261Z,1004.53
2022-11-27T02:53:27.275Z,1004.56
2022-11-27T02:54:27.248Z,1004.57
2022-11-27T02:55:27.236Z,1004.64
2022-11-27T02:56:27.228Z,1004.60
2022-11-27T02:57:27.222Z,1004.60
2022-11-27T02:58:27.290Z,1004.67
2022-11-27T02:59:27.225Z,1004.68
2022-11-27T03:00:27.196Z,1004.70
2022-11-27T03:01:27.259Z,1004.70
2022-11-27T03:02:27.255Z,1004.69
2022-11-27T03:03:27.180Z,1004.69
2022-11-27T03:04:27.188Z,1004.67
2022-11-27T03:05:27.156Z,1004.61
2022-11-27T03:06:27.148Z,1004.63
2022-11-27T03:07:27.159Z,1004.68
2022-11-27T03:08:27.127Z,1004.70
2022-11-27T03:09:27.146Z,1004.70
2022-11-27T03:10:27.116Z,1004.64
2022-11-27T03:11:27.106Z,1004.67
2022-11-27T03:12:27.099Z,1004.65
2022-11-27T03:13:27.090Z,1004.61
2022-11-27T03:14:27.175Z,1004.66
2022-11-27T03:15:27.076Z,1004.70
2022-11-27T03:16:27.144Z,1004.60
2022-11-27T03:17:27.058Z,1004.67
2022-11-27T03:18:27.051Z,1004.60
2022-11-27T03:19:27.064Z,1004.59
2022-11-27T03:20:27.042Z,1004.63
2022-11-27T03:21:27.020Z,1004.63
2022-11-27T03:22:27.013Z,1004.65
2022-11-27T03:23:27.004Z,1004.68
2022-11-27T03:24:27.021Z,1004.69
2022-11-27T03:25:26.990Z,1004.67
2022-11-27T03:26:26.981Z,1004.67
2022-11-27T03:27:26.970Z,1004.61
2022-11-27T03:28:26.966Z,1004.59
2022-11-27T03:29:26.987Z,1004.55
2022-11-27T03:30:27.027Z,1004.65
2022-11-27T03:31:27.045Z,1004.59
2022-11-27T03:32:26.934Z,1004.57
2022-11-27T03:33:26.927Z,1004.58
2022-11-27T03:34:26.948Z,1004.59
2022-11-27T03:35:26.910Z,1004.57
2022-11-27T03:36:26.906Z,1004.57
2022-11-27T03:37:26.894Z,1004.60
2022-11-27T03:38:26.888Z,1004.54
2022-11-27T03:39:26.917Z,1004.58
2022-11-27T03:40:26.868Z,1004.56
2022-11-27T03:41:26.858Z,1004.51
2022-11-27T03:42:26.854Z,1004.53
2022-11-27T03:43:26.847Z,1004.50
2022-11-27T03:44:26.838Z,1004.50
2022-11-27T03:45:26.854Z,1004.49
2022-11-27T03:46:26.935Z,1004.51
2022-11-27T03:47:26.888Z,1004.52
2022-11-27T03:48:26.797Z,1004.41
2022-11-27T03:49:26.796Z,1004.46
2022-11-27T03:50:26.817Z,1004.44
2022-11-27T03:51:26.779Z,1004.35
2022-11-27T03:52:26.772Z,1004.45
2022-11-27T03:53:26.766Z,1004.44
2022-11-27T03:54:26.755Z,1004.44
2022-11-27T03:55:26.774Z,1004.41
2022-11-27T03:56:26.742Z,1004.44
2022-11-27T03:57:26.730Z,1004.38
2022-11-27T03:58:26.728Z,1004.49
2022-11-27T03:59:26.716Z,1004.40
2022-11-27T04:00:26.733Z,1004.43
2022-11-27T04:01:26.730Z,1004.44
2022-11-27T04:02:26.768Z,1004.47
2022-11-27T04:03:26.737Z,1004.40
2022-11-27T04:04:26.680Z,1004.35
2022-11-27T04:05:26.697Z,1004.36
2022-11-27T04:06:26.666Z,1004.34
2022-11-27T04:07:26.658Z,1004.37
2022-11-27T04:08:26.646Z,1004.36
2022-11-27T04:09:26.636Z,1004.36
2022-11-27T04:10:26.653Z,1004.31
2022-11-27T04:11:26.623Z,1004.34
2022-11-27T04:12:26.612Z,1004.33
2022-11-27T04:13:26.607Z,1004.31
2022-11-27T04:14:26.602Z,1004.32
2022-11-27T04:15:26.614Z,1004.31
2022-11-27T04:16:26.608Z,1004.31
2022-11-27T04:17:26.580Z,1004.34
2022-11-27T04:18:26.646Z,1004.36
2022-11-27T04:19:26.560Z,1004.32
2022-11-27T04:20:26.579Z,1004.35
2022-11-27T04:21:26.546Z,1004.29
2022-11-27T04:22:26.540Z,1004.29
2022-11-27T04:23:26.533Z,1004.29
2022-11-27T04:24:26.520Z,1004.32
2022-11-27T04:25:26.539Z,1004.29
2022-11-27T04:26:26.502Z,1004.29
2022-11-27T04:27:26.493Z,1004.31
2022-11-27T04:28:26.489Z,1004.37
2022-11-27T04:29:26.478Z,1004.35
2022-11-27T04:30:26.505Z,1004.38
2022-11-27T04:31:26.523Z,1004.42
2022-11-27T04:32:26.453Z,1004.42
2022-11-27T04:33:26.443Z,1004.45
2022-11-27T04:34:26.527Z,1004.39
2022-11-27T04:35:26.459Z,1004.43
2022-11-27T04:36:26.424Z,1004.37
2022-11-27T04:37:26.412Z,1004.36
2022-11-27T04:38:26.407Z,1004.36
2022-11-27T04:39:26.402Z,1004.37
2022-11-27T04:40:26.389Z,1004.36
2022-11-27T04:41:26.393Z,1004.40
2022-11-27T04:42:27.376Z,1004.28
2022-11-27T04:43:26.370Z,1004.31
2022-11-27T04:44:26.358Z,1004.31
2022-11-27T04:45:26.351Z,1004.23
2022-11-27T04:46:26.444Z,1004.21
2022-11-27T04:47:26.334Z,1004.24
2022-11-27T04:48:26.324Z,1004.22
2022-11-27T04:49:26.319Z,1004.20
2022-11-27T04:50:26.383Z,1004.18
2022-11-27T04:51:26.327Z,1004.20
2022-11-27T04:52:26.295Z,1004.14
2022-11-27T04:53:26.285Z,1004.14
2022-11-27T04:54:26.284Z,1004.06
2022-11-27T04:55:26.268Z,1004.13
2022-11-27T04:56:26.287Z,1003.97
2022-11-27T04:57:26.250Z,1004.07
2022-11-27T04:58:26.252Z,1004.00
2022-11-27T04:59:26.243Z,1004.00
2022-11-27T05:00:26.292Z,1003.99
2022-11-27T05:01:26.283Z,1004.02
2022-11-27T05:02:26.282Z,1003.92
2022-11-27T05:03:26.209Z,1004.00
2022-11-27T05:04:26.206Z,1003.96
2022-11-27T05:05:26.191Z,1003.97
2022-11-27T05:06:26.284Z,1003.94
2022-11-27T05:07:26.242Z,1003.99
2022-11-27T05:08:26.176Z,1003.97
2022-11-27T05:09:26.152Z,1003.92
2022-11-27T05:10:27.156Z,1003.94
2022-11-27T05:11:26.172Z,1003.91
2022-11-27T05:12:26.137Z,1003.88
2022-11-27T05:13:26.142Z,1003.94
2022-11-27T05:14:26.125Z,1003.91
2022-11-27T05:15:26.121Z,1003.92
2022-11-27T05:16:26.181Z,1003.88
2022-11-27T05:17:26.099Z,1003.89
2022-11-27T05:18:26.109Z,1003.91
2022-11-27T05:19:26.090Z,1003.88
2022-11-27T05:20:26.077Z,1003.78
2022-11-27T05:21:26.094Z,1003.79
2022-11-27T05:22:26.135Z,1003.72
2022-11-27T05:23:26.057Z,1003.64
2022-11-27T05:24:26.050Z,1003.61
2022-11-27T05:25:26.040Z,1003.67
2022-11-27T05:26:26.058Z,1003.63
2022-11-27T05:27:26.021Z,1003.62
2022-11-27T05:28:26.981Z,1003.66
2022-11-27T05:29:27.006Z,1003.64
2022-11-27T05:30:25.998Z,1003.67
2022-11-27T05:31:26.074Z,1003.69
2022-11-27T05:32:25.984Z,1003.67
2022-11-27T05:33:25.995Z,1003.67
2022-11-27T05:34:25.966Z,1003.65
2022-11-27T05:35:25.959Z,1003.61
2022-11-27T05:36:25.979Z,1003.67
2022-11-27T05:37:25.943Z,1003.69
2022-11-27T05:38:26.014Z,1003.65
2022-11-27T05:39:25.926Z,1003.69
2022-11-27T05:40:25.924Z,1003.62
2022-11-27T05:41:25.935Z,1003.58
2022-11-27T05:42:25.906Z,1003.55
2022-11-27T05:43:25.900Z,1003.57
2022-11-27T05:44:25.903Z,1003.63
2022-11-27T05:45:25.884Z,1003.60
2022-11-27T05:46:25.945Z,1003.59
2022-11-27T05:47:25.869Z,1003.58
2022-11-27T05:48:25.862Z,1003.65
2022-11-27T05:49:25.853Z,1003.69
2022-11-27T05:50:25.845Z,1003.70
2022-11-27T05:51:25.859Z,1003.71
2022-11-27T05:52:25.831Z,1003.72
2022-11-27T05:53:25.820Z,1003.70
2022-11-27T05:54:25.894Z,1003.71
2022-11-27T05:55:25.802Z,1003.72
2022-11-27T05:56:25.833Z,1003.73
2022-11-27T05:57:25.789Z,1003.67
2022-11-27T05:58:25.781Z,1003.70
2022-11-27T05:59:25.775Z,1003.63
2022-11-27T06:00:25.769Z,1003.60
2022-11-27T06:01:25.787Z,1003.61
2022-11-27T06:02:29.408Z,1003.48
2022-11-27T06:03:26.843Z,1003.55
2022-11-27T06:04:25.734Z,1003.62
2022-11-27T06:05:25.728Z,1003.51
2022-11-27T06:06:25.719Z,1003.52
2022-11-27T06:07:25.813Z,1003.44
2022-11-27T06:08:25.697Z,1003.41
2022-11-27T06:09:25.694Z,1003.46
2022-11-27T06:10:25.762Z,1003.46
2022-11-27T06:11:25.677Z,1003.44
2022-11-27T06:12:25.696Z,1003.35
2022-11-27T06:13:25.659Z,1003.37
2022-11-27T06:14:25.653Z,1003.38
2022-11-27T06:15:25.640Z,1003.43
2022-11-27T06:16:25.688Z,1003.49
2022-11-27T06:17:25.655Z,1003.40
2022-11-27T06:18:25.626Z,1003.46
2022-11-27T06:19:25.614Z,1003.46
2022-11-27T06:20:25.613Z,1003.51
2022-11-27T06:21:25.600Z,1003.45
2022-11-27T06:22:25.610Z,1003.45
2022-11-27T06:23:25.582Z,1003.44
2022-11-27T06:24:25.573Z,1003.42
2022-11-27T06:25:25.567Z,1003.47
2022-11-27T06:26:25.624Z,1003.45
2022-11-27T06:27:25.579Z,1003.44
2022-11-27T06:28:25.544Z,1003.45
2022-11-27T06:29:25.530Z,1003.45
2022-11-27T06:30:25.526Z,1003.59
2022-11-27T06:31:25.584Z,1003.54
2022-11-27T06:32:25.540Z,1003.48
2022-11-27T06:33:25.502Z,1003.46
2022-11-27T06:34:25.492Z,1003.46
2022-11-27T06:35:25.495Z,1003.38
2022-11-27T06:36:25.477Z,1003.41
2022-11-27T06:37:25.506Z,1003.43
2022-11-27T06:38:25.465Z,1003.39
2022-11-27T06:39:25.454Z,1003.40
2022-11-27T06:40:25.449Z,1003.42
2022-11-27T06:41:25.439Z,1003.38
2022-11-27T06:42:25.530Z,1003.38
2022-11-27T06:43:25.420Z,1003.40
2022-11-27T06:44:25.412Z,1003.43
2022-11-27T06:45:25.430Z,1003.53
2022-11-27T06:46:25.397Z,1003.44
2022-11-27T06:47:25.414Z,1003.45
2022-11-27T06:48:25.386Z,1003.43
2022-11-27T06:49:25.376Z,1003.41
2022-11-27T06:50:25.365Z,1003.45
2022-11-27T06:51:25.359Z,1003.40
2022-11-27T06:52:25.382Z,1003.40
2022-11-27T06:53:25.340Z,1003.36
2022-11-27T06:54:25.330Z,1003.35
2022-11-27T06:55:25.328Z,1003.34
2022-11-27T06:56:25.318Z,1003.36
2022-11-27T06:57:25.309Z,1003.34
2022-11-27T06:58:30.857Z,1003.32
2022-11-27T06:59:27.299Z,1003.28
2022-11-27T07:00:25.285Z,1003.32
2022-11-27T07:01:25.424Z,1003.29
2022-11-27T07:02:25.333Z,1003.30
2022-11-27T07:03:25.291Z,1003.33
2022-11-27T07:04:25.257Z,1003.31
2022-11-27T07:05:25.250Z,1003.34
2022-11-27T07:06:25.242Z,1003.27
2022-11-27T07:07:25.366Z,1003.21
2022-11-27T07:08:25.250Z,1003.25
2022-11-27T07:09:25.213Z,1003.17
2022-11-27T07:10:25.212Z,1003.03
2022-11-27T07:11:25.204Z,1003.06
2022-11-27T07:12:25.185Z,1003.11
2022-11-27T07:13:26.215Z,1003.07
2022-11-27T07:14:25.252Z,1003.11
2022-11-27T07:15:25.169Z,1003.13
2022-11-27T07:16:25.184Z,1003.09
2022-11-27T07:17:25.156Z,1003.19
2022-11-27T07:18:25.169Z,1003.17
2022-11-27T07:19:25.139Z,1003.17
2022-11-27T07:20:25.136Z,1003.23
2022-11-27T07:21:25.126Z,1003.23
2022-11-27T07:22:25.118Z,1003.22
2022-11-27T07:23:25.139Z,1003.23
2022-11-27T07:24:25.104Z,1003.22
2022-11-27T07:25:25.101Z,1003.19
2022-11-27T07:26:25.087Z,1003.24
2022-11-27T07:27:25.082Z,1003.18
2022-11-27T07:28:25.096Z,1003.18
2022-11-27T07:29:25.070Z,1003.17
2022-11-27T07:30:25.132Z,1003.18
2022-11-27T07:31:25.087Z,1003.21
2022-11-27T07:32:25.043Z,1003.25
2022-11-27T07:33:25.061Z,1003.23
2022-11-27T07:34:25.028Z,1003.24
2022-11-27T07:35:25.019Z,1003.16
2022-11-27T07:36:25.018Z,1003.15
2022-11-27T07:37:25.004Z,1003.10
2022-11-27T07:38:25.021Z,1003.12
2022-11-27T07:39:46.336Z,1003.12
2022-11-27T07:40:27.040Z,1003.13
2022-11-27T07:41:29.135Z,1003.15
2022-11-27T07:42:41.415Z,1003.15
2022-11-27T07:43:26.985Z,1003.13
2022-11-27T07:44:24.954Z,1003.18
2022-11-27T07:45:25.020Z,1003.21
2022-11-27T07:46:25.012Z,1003.19
2022-11-27T07:47:24.934Z,1003.11
2022-11-27T07:48:24.943Z,1003.10
2022-11-27T07:49:24.910Z,1003.02
2022-11-27T07:50:24.904Z,1003.07
2022-11-27T07:51:24.894Z,1003.08
2022-11-27T07:52:24.885Z,1003.07
2022-11-27T07:53:24.913Z,1003.00
2022-11-27T07:54:24.872Z,1003.01
2022-11-27T07:55:24.868Z,1002.98
2022-11-27T07:56:24.857Z,1002.94
2022-11-27T07:57:24.848Z,1002.99
2022-11-27T07:58:24.872Z,1002.97
2022-11-27T07:59:24.833Z,1002.97
2022-11-27T08:00:24.826Z,1002.93
2022-11-27T08:01:24.887Z,1002.95
2022-11-27T08:02:24.883Z,1003.01
2022-11-27T08:03:24.798Z,1003.04
2022-11-27T08:04:24.841Z,1003.01
2022-11-27T08:05:24.858Z,1002.98
2022-11-27T08:06:24.778Z,1003.00
2022-11-27T08:07:24.825Z,1002.97
2022-11-27T08:08:24.765Z,1002.95
2022-11-27T08:09:24.784Z,1002.96
2022-11-27T08:10:24.747Z,1002.93
2022-11-27T08:11:24.755Z,1002.95
2022-11-27T08:12:25.730Z,1002.84
2022-11-27T08:13:24.723Z,1002.90
2022-11-27T08:14:24.733Z,1002.94
2022-11-27T08:15:25.703Z,1002.81
2022-11-27T08:16:24.763Z,1002.84
2022-11-27T08:17:24.693Z,1002.80
2022-11-27T08:18:24.766Z,1002.89
2022-11-27T08:19:24.708Z,1002.82
2022-11-27T08:20:24.671Z,1002.72
2022-11-27T08:21:24.659Z,1002.78
2022-11-27T08:22:24.655Z,1002.81
2022-11-27T08:23:24.648Z,1002.78
2022-11-27T08:24:24.671Z,1002.82
2022-11-27T08:25:24.628Z,1002.74
2022-11-27T08:26:24.617Z,1002.83
2022-11-27T08:27:25.613Z,1002.88
2022-11-27T08:28:24.603Z,1002.92
2022-11-27T08:29:24.625Z,1002.86
2022-11-27T08:30:24.665Z,1002.86
2022-11-27T08:31:24.648Z,1002.81
2022-11-27T08:32:24.579Z,1002.80
2022-11-27T08:33:24.567Z,1002.83
2022-11-27T08:34:25.656Z,1002.80
2022-11-27T08:35:24.557Z,1002.86
2022-11-27T08:36:24.546Z,1002.83
2022-11-27T08:37:24.530Z,1002.87
2022-11-27T08:38:24.533Z,1002.93
2022-11-27T08:39:24.543Z,1002.90
2022-11-27T08:40:24.568Z,1002.89
2022-11-27T08:41:24.504Z,1002.91
2022-11-27T08:42:24.496Z,1002.89
2022-11-27T08:43:24.487Z,1002.90
2022-11-27T08:44:24.506Z,1002.91
2022-11-27T08:45:24.536Z,1002.88
2022-11-27T08:46:24.462Z,1002.85
2022-11-27T08:47:24.455Z,1002.86
2022-11-27T08:48:24.445Z,1002.88
2022-11-27T08:49:24.464Z,1002.85
2022-11-27T08:50:24.576Z,1002.86
2022-11-27T08:51:24.425Z,1002.85
2022-11-27T08:52:24.414Z,1002.84
2022-11-27T08:53:24.408Z,1002.87
2022-11-27T08:54:24.425Z,1002.89
2022-11-27T08:55:24.392Z,1002.88
2022-11-27T08:56:24.482Z,1002.88
2022-11-27T08:57:24.400Z,1002.88
2022-11-27T08:58:24.364Z,1002.83
2022-11-27T08:59:24.380Z,1002.82
2022-11-27T09:00:27.988Z,1002.83
2022-11-27T09:01:25.408Z,1002.88
2022-11-27T09:02:24.339Z,1002.91
2022-11-27T09:03:24.331Z,1002.84
2022-11-27T09:04:24.395Z,1002.73
2022-11-27T09:05:24.314Z,1002.63
2022-11-27T09:06:24.381Z,1002.74
2022-11-27T09:07:24.384Z,1002.64
2022-11-27T09:08:24.290Z,1002.66
2022-11-27T09:09:24.308Z,1002.58
2022-11-27T09:10:24.354Z,1002.62
2022-11-27T09:11:24.265Z,1002.57
2022-11-27T09:12:24.254Z,1002.47
2022-11-27T09:13:24.249Z,1002.44
2022-11-27T09:14:24.270Z,1002.41
2022-11-27T09:15:24.232Z,1002.45
2022-11-27T09:16:24.280Z,1002.37
2022-11-27T09:17:24.217Z,1002.36
2022-11-27T09:18:24.210Z,1002.38
2022-11-27T09:19:24.224Z,1002.31
2022-11-27T09:20:24.194Z,1002.36
2022-11-27T09:21:24.181Z,1002.26
2022-11-27T09:22:24.249Z,1002.29
2022-11-27T09:23:24.169Z,1002.30
2022-11-27T09:24:24.185Z,1002.26
2022-11-27T09:25:24.156Z,1002.24
2022-11-27T09:26:24.155Z,1002.22
2022-11-27T09:27:24.150Z,1002.23
2022-11-27T09:28:29.813Z,1002.10
2022-11-27T09:29:25.147Z,1002.13
2022-11-27T09:30:24.141Z,1002.15
2022-11-27T09:31:24.174Z,1002.06
2022-11-27T09:32:24.167Z,1002.16
2022-11-27T09:33:24.093Z,1002.06
2022-11-27T09:34:24.108Z,1002.06
2022-11-27T09:35:24.172Z,1002.08
2022-11-27T09:36:24.095Z,1002.13
2022-11-27T09:37:24.064Z,1002.07
2022-11-27T09:38:24.129Z,1002.02
2022-11-27T09:39:24.071Z,1002.02
2022-11-27T09:40:24.033Z,1002.04
2022-11-27T09:41:24.029Z,1001.98
2022-11-27T09:42:24.020Z,1001.97
2022-11-27T09:43:24.011Z,1002.04
2022-11-27T09:44:24.000Z,1002.02
2022-11-27T09:45:24.017Z,1002.01
2022-11-27T09:46:24.007Z,1001.98
2022-11-27T09:47:23.974Z,1002.06
2022-11-27T09:48:23.972Z,1002.01
2022-11-27T09:49:23.961Z,1002.12
2022-11-27T09:50:23.981Z,1002.18
2022-11-27T09:51:23.949Z,1002.13
2022-11-27T09:52:23.938Z,1002.21
2022-11-27T09:53:23.931Z,1002.18
2022-11-27T09:54:23.993Z,1002.17
2022-11-27T09:55:24.945Z,1002.18
2022-11-27T09:56:23.903Z,1002.16
2022-11-27T09:57:23.896Z,1002.16
2022-11-27T09:58:23.891Z,1002.21
2022-11-27T09:59:23.882Z,1002.23
2022-11-27T10:00:23.895Z,1002.16
2022-11-27T10:01:27.395Z,1002.11
2022-11-27T10:02:25.949Z,1002.16
2022-11-27T10:03:23.918Z,1002.06
2022-11-27T10:04:23.838Z,1001.99
2022-11-27T10:05:23.889Z,1001.95
2022-11-27T10:06:23.832Z,1001.91
2022-11-27T10:07:23.889Z,1001.84
2022-11-27T10:08:23.807Z,1001.84
2022-11-27T10:09:23.802Z,1001.92
2022-11-27T10:10:23.894Z,1001.82
2022-11-27T10:11:23.788Z,1001.74
2022-11-27T10:12:23.777Z,1001.82
2022-11-27T10:13:23.770Z,1001.83
2022-11-27T10:14:23.764Z,1001.85
2022-11-27T10:15:23.778Z,1001.85
2022-11-27T10:16:23.806Z,1001.78
2022-11-27T10:17:23.736Z,1001.74
2022-11-27T10:18:23.728Z,1001.74
2022-11-27T10:19:23.721Z,1001.70
2022-11-27T10:20:23.739Z,1001.65
2022-11-27T10:21:23.705Z,1001.71
2022-11-27T10:22:23.701Z,1001.67
2022-11-27T10:23:23.692Z,1001.70
2022-11-27T10:24:23.682Z,1001.61
2022-11-27T10:25:23.701Z,1001.61
2022-11-27T10:26:23.747Z,1001.66
2022-11-27T10:27:23.656Z,1001.64
2022-11-27T10:28:23.647Z,1001.61
2022-11-27T10:29:23.641Z,1001.63
2022-11-27T10:30:23.663Z,1001.62
2022-11-27T10:31:23.688Z,1001.61
2022-11-27T10:32:53.611Z,1001.53
2022-11-27T10:33:25.614Z,1001.52
2022-11-27T10:34:23.600Z,1001.54
2022-11-27T10:35:23.617Z,1001.50
2022-11-27T10:36:23.594Z,1001.50
2022-11-27T10:37:23.584Z,1001.50
2022-11-27T10:38:23.570Z,1001.51
2022-11-27T10:39:23.564Z,1001.44
2022-11-27T10:40:23.587Z,1001.42
2022-11-27T10:41:52.456Z,1001.50
2022-11-27T10:42:25.622Z,1001.46
2022-11-27T10:43:23.533Z,1001.45
2022-11-27T10:44:23.529Z,1001.39
2022-11-27T10:45:23.548Z,1001.42
2022-11-27T10:46:23.547Z,1001.42
2022-11-27T10:47:23.506Z,1001.41
2022-11-27T10:48:23.494Z,1001.40
2022-11-27T10:49:23.495Z,1001.35
2022-11-27T10:50:23.484Z,1001.36
2022-11-27T10:51:23.499Z,1001.33
2022-11-27T10:52:23.462Z,1001.26
2022-11-27T10:53:23.460Z,1001.26
2022-11-27T10:54:23.448Z,1001.22
2022-11-27T10:55:23.468Z,1001.24
2022-11-27T10:56:23.434Z,1001.19
2022-11-27T10:57:23.424Z,1001.23
2022-11-27T10:58:23.493Z,1001.22
2022-11-27T10:59:23.411Z,1001.30
2022-11-27T11:00:23.408Z,1001.24
2022-11-27T11:01:23.489Z,1001.24
2022-11-27T11:02:23.436Z,1001.23
2022-11-27T11:03:23.379Z,1001.24
2022-11-27T11:04:39.230Z,1001.19
2022-11-27T11:06:25.547Z,1001.24
2022-11-27T11:07:23.394Z,1001.23
2022-11-27T11:08:23.341Z,1001.16
2022-11-27T11:09:23.334Z,1001.14
2022-11-27T11:10:23.328Z,1001.09
2022-11-27T11:11:23.342Z,1001.11
2022-11-27T11:12:23.310Z,1001.10
2022-11-27T11:13:23.309Z,1001.13
2022-11-27T11:14:23.367Z,1001.05
2022-11-27T11:15:23.291Z,1001.09
2022-11-27T11:16:24.639Z,1001.11
2022-11-27T11:17:24.335Z,1001.05
2022-11-27T11:18:23.263Z,1001.10
2022-11-27T11:19:23.261Z,1001.14
2022-11-27T11:20:23.250Z,1001.11
2022-11-27T11:21:23.265Z,1001.10
2022-11-27T11:22:23.236Z,1001.06
2022-11-27T11:23:23.226Z,1001.06
2022-11-27T11:24:23.217Z,1000.95
2022-11-27T11:25:23.213Z,1000.94
2022-11-27T11:26:23.234Z,1000.90
2022-11-27T11:27:23.196Z,1000.85
2022-11-27T11:28:23.189Z,1000.91
2022-11-27T11:29:23.179Z,1000.88
2022-11-27T11:30:23.261Z,1000.89
2022-11-27T11:31:23.272Z,1000.84
2022-11-27T11:32:23.152Z,1000.83
2022-11-27T11:33:23.157Z,1000.84
2022-11-27T11:34:23.140Z,1000.86
2022-11-27T11:35:23.130Z,1000.84
2022-11-27T11:36:23.149Z,1000.76
2022-11-27T11:37:23.117Z,1000.74
2022-11-27T11:38:23.115Z,1000.68
2022-11-27T11:39:23.108Z,1000.65
2022-11-27T11:40:23.089Z,1000.61
2022-11-27T11:41:23.110Z,1000.62
2022-11-27T11:42:23.078Z,1000.58
2022-11-27T11:43:23.068Z,1000.59
2022-11-27T11:44:23.064Z,1000.60
2022-11-27T11:45:23.053Z,1000.61
2022-11-27T11:46:23.187Z,1000.63
2022-11-27T11:47:23.042Z,1000.55
2022-11-27T11:48:23.036Z,1000.52
2022-11-27T11:49:23.023Z,1000.52
2022-11-27T11:50:23.026Z,1000.48
2022-11-27T11:51:29.061Z,1000.51
2022-11-27T11:52:24.997Z,1000.45
2022-11-27T11:53:22.994Z,1000.46
2022-11-27T11:54:22.982Z,1000.42
2022-11-27T11:55:22.984Z,1000.51
2022-11-27T11:56:22.991Z,1000.40
2022-11-27T11:57:22.957Z,1000.46
2022-11-27T11:58:22.952Z,1000.41
2022-11-27T11:59:22.940Z,1000.42
2022-11-27T12:00:28.273Z,1000.42
2022-11-27T12:01:27.529Z,1000.44
2022-11-27T12:02:23.940Z,1000.36
2022-11-27T12:03:22.909Z,1000.35
2022-11-27T12:04:22.959Z,1000.33
2022-11-27T12:05:22.899Z,1000.33
2022-11-27T12:06:22.899Z,1000.30